sensor_id;sensor_type;location;lat;lon;timestamp;P1;durP1;ratioP1;P2;durP2;ratioP2
6269;SDS011;3168;51.684;6.954;2023-06-14T00:01:04;3.50;;;2.83;;
6269;SDS011;3168;51.684;6.954;2023-06-14T00:03:30;3.53;;;3.43;;
6269;SDS011;3168;51.684;6.954;2023-06-14T00:05:55;3.43;;;3.33;;
6269;SDS011;3168;51.684;6.954;2023-06-14T00:08:21;6.23;;;3.00;;
6269;SDS011;3168;51.684;6.954;2023-06-14T00:10:47;2.43;;;2.33;;
6269;SDS011;3168;51.684;6.954;2023-06-14T00:13:13;4.13;;;3.17;;
6269;SDS011;3168;51.684;6.954;2023-06-14T00:15:39;2.50;;;2.40;;
6269;SDS011;3168;51.684;6.954;2023-06-14T00:18:05;2.70;;;2.50;;
6269;SDS011;3168;51.684;6.954;2023-06-14T00:20:31;2.97;;;2.83;;
6269;SDS011;3168;51.684;6.954;2023-06-14T00:22:56;3.10;;;3.00;;
6269;SDS011;3168;51.684;6.954;2023-06-14T00:25:22;2.60;;;2.50;;
6269;SDS011;3168;51.684;6.954;2023-06-14T00:27:48;3.27;;;3.17;;
6269;SDS011;3168;51.684;6.954;2023-06-14T00:30:14;4.17;;;2.83;;
6269;SDS011;3168;51.684;6.954;2023-06-14T00:32:40;3.70;;;3.50;;
6269;SDS011;3168;51.684;6.954;2023-06-14T00:35:06;2.93;;;2.83;;
6269;SDS011;3168;51.684;6.954;2023-06-14T00:37:32;2.30;;;2.20;;
6269;SDS011;3168;51.684;6.954;2023-06-14T00:39:57;2.47;;;2.37;;
6269;SDS011;3168;51.684;6.954;2023-06-14T00:42:25;2.80;;;2.70;;
6269;SDS011;3168;51.684;6.954;2023-06-14T00:44:50;2.80;;;2.70;;
6269;SDS011;3168;51.684;6.954;2023-06-14T00:47:16;3.13;;;2.90;;
6269;SDS011;3168;51.684;6.954;2023-06-14T00:49:42;2.30;;;2.20;;
6269;SDS011;3168;51.684;6.954;2023-06-14T00:52:08;3.13;;;2.93;;
6269;SDS011;3168;51.684;6.954;2023-06-14T00:54:33;2.80;;;2.60;;
6269;SDS011;3168;51.684;6.954;2023-06-14T00:56:59;3.20;;;2.90;;
6269;SDS011;3168;51.684;6.954;2023-06-14T00:59:26;4.27;;;2.80;;
6269;SDS011;3168;51.684;6.954;2023-06-14T01:01:52;4.63;;;3.07;;
6269;SDS011;3168;51.684;6.954;2023-06-14T01:04:17;3.13;;;2.90;;
6269;SDS011;3168;51.684;6.954;2023-06-14T01:06:45;2.60;;;2.50;;
6269;SDS011;3168;51.684;6.954;2023-06-14T01:09:27;4.43;;;2.90;;
6269;SDS011;3168;51.684;6.954;2023-06-14T01:11:56;2.67;;;2.47;;
6269;SDS011;3168;51.684;6.954;2023-06-14T01:14:19;3.23;;;2.80;;
6269;SDS011;3168;51.684;6.954;2023-06-14T01:16:45;2.07;;;1.97;;
6269;SDS011;3168;51.684;6.954;2023-06-14T01:19:11;3.93;;;3.07;;
6269;SDS011;3168;51.684;6.954;2023-06-14T01:21:37;2.40;;;2.30;;
6269;SDS011;3168;51.684;6.954;2023-06-14T01:24:03;2.30;;;2.20;;
6269;SDS011;3168;51.684;6.954;2023-06-14T01:26:29;6.30;;;3.17;;
6269;SDS011;3168;51.684;6.954;2023-06-14T01:28:54;3.15;;;2.80;;
6269;SDS011;3168;51.684;6.954;2023-06-14T01:31:20;3.57;;;2.90;;
6269;SDS011;3168;51.684;6.954;2023-06-14T01:33:47;1.90;;;1.80;;
6269;SDS011;3168;51.684;6.954;2023-06-14T01:36:14;3.13;;;2.80;;
6269;SDS011;3168;51.684;6.954;2023-06-14T01:38:39;2.43;;;2.33;;
6269;SDS011;3168;51.684;6.954;2023-06-14T01:41:05;2.70;;;2.50;;
6269;SDS011;3168;51.684;6.954;2023-06-14T01:43:31;2.30;;;2.20;;
6269;SDS011;3168;51.684;6.954;2023-06-14T01:45:57;18.47;;;3.63;;
6269;SDS011;3168;51.684;6.954;2023-06-14T01:48:23;3.10;;;3.00;;
6269;SDS011;3168;51.684;6.954;2023-06-14T01:50:49;3.23;;;2.73;;
6269;SDS011;3168;51.684;6.954;2023-06-14T01:53:14;2.13;;;2.03;;
6269;SDS011;3168;51.684;6.954;2023-06-14T01:55:40;7.37;;;3.10;;
6269;SDS011;3168;51.684;6.954;2023-06-14T01:58:06;5.53;;;1.67;;
6269;SDS011;3168;51.684;6.954;2023-06-14T02:00:33;1.77;;;1.77;;
6269;SDS011;3168;51.684;6.954;2023-06-14T02:02:58;2.20;;;2.10;;
6269;SDS011;3168;51.684;6.954;2023-06-14T02:05:24;2.77;;;2.57;;
6269;SDS011;3168;51.684;6.954;2023-06-14T02:07:51;4.50;;;2.60;;
6269;SDS011;3168;51.684;6.954;2023-06-14T02:10:17;4.53;;;2.40;;
6269;SDS011;3168;51.684;6.954;2023-06-14T02:12:43;2.87;;;2.63;;
6269;SDS011;3168;51.684;6.954;2023-06-14T02:15:09;2.80;;;2.60;;
6269;SDS011;3168;51.684;6.954;2023-06-14T02:17:35;2.67;;;2.47;;
6269;SDS011;3168;51.684;6.954;2023-06-14T02:20:01;2.50;;;2.30;;
6269;SDS011;3168;51.684;6.954;2023-06-14T02:22:27;3.00;;;2.80;;
6269;SDS011;3168;51.684;6.954;2023-06-14T02:24:53;2.17;;;2.00;;
6269;SDS011;3168;51.684;6.954;2023-06-14T02:27:19;2.23;;;2.13;;
6269;SDS011;3168;51.684;6.954;2023-06-14T02:29:45;2.93;;;2.73;;
6269;SDS011;3168;51.684;6.954;2023-06-14T02:32:10;2.60;;;2.40;;
6269;SDS011;3168;51.684;6.954;2023-06-14T02:34:36;1.83;;;1.73;;
6269;SDS011;3168;51.684;6.954;2023-06-14T02:37:02;3.40;;;2.47;;
6269;SDS011;3168;51.684;6.954;2023-06-14T02:39:28;2.00;;;1.90;;
6269;SDS011;3168;51.684;6.954;2023-06-14T02:41:54;2.80;;;2.63;;
6269;SDS011;3168;51.684;6.954;2023-06-14T02:44:24;2.37;;;2.27;;
6269;SDS011;3168;51.684;6.954;2023-06-14T02:46:46;2.53;;;2.33;;
6269;SDS011;3168;51.684;6.954;2023-06-14T02:49:12;2.80;;;2.53;;
6269;SDS011;3168;51.684;6.954;2023-06-14T02:51:38;3.60;;;2.20;;
6269;SDS011;3168;51.684;6.954;2023-06-14T02:54:03;2.07;;;1.97;;
6269;SDS011;3168;51.684;6.954;2023-06-14T02:56:29;2.77;;;2.57;;
6269;SDS011;3168;51.684;6.954;2023-06-14T02:58:55;2.50;;;2.40;;
6269;SDS011;3168;51.684;6.954;2023-06-14T03:01:21;1.40;;;1.40;;
6269;SDS011;3168;51.684;6.954;2023-06-14T03:03:47;2.57;;;2.47;;
6269;SDS011;3168;51.684;6.954;2023-06-14T03:06:12;2.47;;;2.37;;
6269;SDS011;3168;51.684;6.954;2023-06-14T03:08:38;2.33;;;2.13;;
6269;SDS011;3168;51.684;6.954;2023-06-14T03:11:04;5.70;;;2.33;;
6269;SDS011;3168;51.684;6.954;2023-06-14T03:13:31;2.20;;;2.10;;
6269;SDS011;3168;51.684;6.954;2023-06-14T03:15:57;4.40;;;2.43;;
6269;SDS011;3168;51.684;6.954;2023-06-14T03:18:23;2.77;;;1.83;;
6269;SDS011;3168;51.684;6.954;2023-06-14T03:20:49;3.23;;;2.30;;
6269;SDS011;3168;51.684;6.954;2023-06-14T03:23:15;3.23;;;2.80;;
6269;SDS011;3168;51.684;6.954;2023-06-14T03:25:41;4.70;;;3.00;;
6269;SDS011;3168;51.684;6.954;2023-06-14T03:28:06;1.90;;;1.80;;
6269;SDS011;3168;51.684;6.954;2023-06-14T03:30:32;4.40;;;2.83;;
6269;SDS011;3168;51.684;6.954;2023-06-14T03:32:58;2.60;;;2.50;;
6269;SDS011;3168;51.684;6.954;2023-06-14T03:35:24;2.37;;;2.27;;
6269;SDS011;3168;51.684;6.954;2023-06-14T03:37:50;2.20;;;2.10;;
6269;SDS011;3168;51.684;6.954;2023-06-14T03:40:17;2.40;;;2.30;;
6269;SDS011;3168;51.684;6.954;2023-06-14T03:42:43;3.10;;;2.90;;
6269;SDS011;3168;51.684;6.954;2023-06-14T03:45:08;2.13;;;1.93;;
6269;SDS011;3168;51.684;6.954;2023-06-14T03:47:34;1.90;;;1.80;;
6269;SDS011;3168;51.684;6.954;2023-06-14T03:50:00;2.40;;;2.30;;
6269;SDS011;3168;51.684;6.954;2023-06-14T03:52:27;2.80;;;2.70;;
6269;SDS011;3168;51.684;6.954;2023-06-14T03:54:52;1.80;;;1.70;;
6269;SDS011;3168;51.684;6.954;2023-06-14T03:57:19;3.67;;;3.37;;
6269;SDS011;3168;51.684;6.954;2023-06-14T03:59:45;3.13;;;2.70;;
6269;SDS011;3168;51.684;6.954;2023-06-14T04:02:11;2.20;;;2.10;;
6269;SDS011;3168;51.684;6.954;2023-06-14T04:04:37;1.60;;;1.60;;
6269;SDS011;3168;51.684;6.954;2023-06-14T04:07:03;4.07;;;2.37;;
6269;SDS011;3168;51.684;6.954;2023-06-14T04:09:29;1.97;;;1.87;;
6269;SDS011;3168;51.684;6.954;2023-06-14T04:11:55;2.70;;;2.50;;
6269;SDS011;3168;51.684;6.954;2023-06-14T04:14:21;2.43;;;2.23;;
6269;SDS011;3168;51.684;6.954;2023-06-14T04:16:48;2.37;;;2.27;;
6269;SDS011;3168;51.684;6.954;2023-06-14T04:19:13;10.30;;;3.00;;
6269;SDS011;3168;51.684;6.954;2023-06-14T04:21:39;2.00;;;1.80;;
6269;SDS011;3168;51.684;6.954;2023-06-14T04:24:05;2.07;;;1.97;;
6269;SDS011;3168;51.684;6.954;2023-06-14T04:26:31;2.37;;;2.27;;
6269;SDS011;3168;51.684;6.954;2023-06-14T04:28:57;2.33;;;2.23;;
6269;SDS011;3168;51.684;6.954;2023-06-14T04:31:23;2.30;;;2.10;;
6269;SDS011;3168;51.684;6.954;2023-06-14T04:33:51;3.83;;;2.50;;
6269;SDS011;3168;51.684;6.954;2023-06-14T04:36:17;4.87;;;2.67;;
6269;SDS011;3168;51.684;6.954;2023-06-14T04:38:43;7.20;;;2.60;;
6269;SDS011;3168;51.684;6.954;2023-06-14T04:41:08;2.17;;;2.07;;
6269;SDS011;3168;51.684;6.954;2023-06-14T04:43:35;2.00;;;1.90;;
6269;SDS011;3168;51.684;6.954;2023-06-14T04:46:01;2.70;;;2.37;;
6269;SDS011;3168;51.684;6.954;2023-06-14T04:48:26;2.60;;;2.40;;
6269;SDS011;3168;51.684;6.954;2023-06-14T04:50:52;2.07;;;1.97;;
6269;SDS011;3168;51.684;6.954;2023-06-14T04:53:18;1.87;;;1.73;;
6269;SDS011;3168;51.684;6.954;2023-06-14T04:55:44;11.00;;;2.90;;
6269;SDS011;3168;51.684;6.954;2023-06-14T04:58:10;2.40;;;2.30;;
6269;SDS011;3168;51.684;6.954;2023-06-14T05:00:36;3.17;;;2.40;;
6269;SDS011;3168;51.684;6.954;2023-06-14T05:03:02;9.87;;;2.20;;
6269;SDS011;3168;51.684;6.954;2023-06-14T05:05:28;4.70;;;2.03;;
6269;SDS011;3168;51.684;6.954;2023-06-14T05:07:54;2.30;;;2.10;;
6269;SDS011;3168;51.684;6.954;2023-06-14T05:10:19;2.23;;;2.13;;
6269;SDS011;3168;51.684;6.954;2023-06-14T05:12:45;2.30;;;2.20;;
6269;SDS011;3168;51.684;6.954;2023-06-14T05:15:11;1.83;;;1.73;;
6269;SDS011;3168;51.684;6.954;2023-06-14T05:17:37;1.77;;;1.67;;
6269;SDS011;3168;51.684;6.954;2023-06-14T05:20:03;3.00;;;2.77;;
6269;SDS011;3168;51.684;6.954;2023-06-14T05:22:29;2.30;;;2.20;;
6269;SDS011;3168;51.684;6.954;2023-06-14T05:24:55;2.23;;;2.13;;
6269;SDS011;3168;51.684;6.954;2023-06-14T05:27:21;1.90;;;1.90;;
6269;SDS011;3168;51.684;6.954;2023-06-14T05:29:47;3.10;;;2.90;;
6269;SDS011;3168;51.684;6.954;2023-06-14T05:32:12;1.83;;;1.83;;
6269;SDS011;3168;51.684;6.954;2023-06-14T05:34:38;4.13;;;2.40;;
6269;SDS011;3168;51.684;6.954;2023-06-14T05:37:04;9.53;;;2.33;;
6269;SDS011;3168;51.684;6.954;2023-06-14T05:39:30;2.10;;;1.90;;
6269;SDS011;3168;51.684;6.954;2023-06-14T05:41:56;2.40;;;2.20;;
6269;SDS011;3168;51.684;6.954;2023-06-14T05:44:21;2.27;;;2.17;;
6269;SDS011;3168;51.684;6.954;2023-06-14T05:46:47;2.70;;;2.43;;
6269;SDS011;3168;51.684;6.954;2023-06-14T05:49:13;2.37;;;2.17;;
6269;SDS011;3168;51.684;6.954;2023-06-14T05:51:39;1.93;;;1.93;;
6269;SDS011;3168;51.684;6.954;2023-06-14T05:54:05;8.00;;;2.27;;
6269;SDS011;3168;51.684;6.954;2023-06-14T05:56:30;3.37;;;2.00;;
6269;SDS011;3168;51.684;6.954;2023-06-14T05:58:56;2.03;;;1.93;;
6269;SDS011;3168;51.684;6.954;2023-06-14T06:01:22;2.03;;;1.93;;
6269;SDS011;3168;51.684;6.954;2023-06-14T06:03:48;3.37;;;1.70;;
6269;SDS011;3168;51.684;6.954;2023-06-14T06:06:14;2.20;;;2.10;;
6269;SDS011;3168;51.684;6.954;2023-06-14T06:08:39;2.20;;;2.10;;
6269;SDS011;3168;51.684;6.954;2023-06-14T06:11:05;2.30;;;2.20;;
6269;SDS011;3168;51.684;6.954;2023-06-14T06:13:31;2.60;;;2.40;;
6269;SDS011;3168;51.684;6.954;2023-06-14T06:15:57;1.97;;;1.87;;
6269;SDS011;3168;51.684;6.954;2023-06-14T06:18:23;4.67;;;1.83;;
6269;SDS011;3168;51.684;6.954;2023-06-14T06:20:49;2.40;;;2.30;;
6269;SDS011;3168;51.684;6.954;2023-06-14T06:23:15;1.57;;;1.57;;
6269;SDS011;3168;51.684;6.954;2023-06-14T06:25:42;2.33;;;2.23;;
6269;SDS011;3168;51.684;6.954;2023-06-14T06:28:07;2.03;;;1.93;;
6269;SDS011;3168;51.684;6.954;2023-06-14T06:30:33;2.07;;;1.97;;
6269;SDS011;3168;51.684;6.954;2023-06-14T06:33:00;6.57;;;2.00;;
6269;SDS011;3168;51.684;6.954;2023-06-14T06:35:25;1.60;;;1.60;;
6269;SDS011;3168;51.684;6.954;2023-06-14T06:37:51;2.07;;;1.97;;
6269;SDS011;3168;51.684;6.954;2023-06-14T06:40:17;1.60;;;1.60;;
6269;SDS011;3168;51.684;6.954;2023-06-14T06:42:43;2.00;;;1.90;;
6269;SDS011;3168;51.684;6.954;2023-06-14T06:45:09;1.40;;;1.30;;
6269;SDS011;3168;51.684;6.954;2023-06-14T06:47:35;2.40;;;2.30;;
6269;SDS011;3168;51.684;6.954;2023-06-14T06:50:01;2.03;;;1.97;;
6269;SDS011;3168;51.684;6.954;2023-06-14T06:52:27;2.07;;;1.97;;
6269;SDS011;3168;51.684;6.954;2023-06-14T06:54:53;1.60;;;1.50;;
6269;SDS011;3168;51.684;6.954;2023-06-14T06:57:19;1.93;;;1.83;;
6269;SDS011;3168;51.684;6.954;2023-06-14T06:59:45;1.60;;;1.60;;
6269;SDS011;3168;51.684;6.954;2023-06-14T07:02:10;2.60;;;2.40;;
6269;SDS011;3168;51.684;6.954;2023-06-14T07:04:36;1.50;;;1.50;;
6269;SDS011;3168;51.684;6.954;2023-06-14T07:07:02;1.83;;;1.73;;
6269;SDS011;3168;51.684;6.954;2023-06-14T07:09:29;1.53;;;1.53;;
6269;SDS011;3168;51.684;6.954;2023-06-14T07:11:55;2.00;;;1.60;;
6269;SDS011;3168;51.684;6.954;2023-06-14T07:14:20;1.70;;;1.67;;
6269;SDS011;3168;51.684;6.954;2023-06-14T07:16:46;1.70;;;1.40;;
6269;SDS011;3168;51.684;6.954;2023-06-14T07:19:12;8.03;;;2.23;;
6269;SDS011;3168;51.684;6.954;2023-06-14T07:21:38;1.63;;;1.63;;
6269;SDS011;3168;51.684;6.954;2023-06-14T07:24:05;1.43;;;1.43;;
6269;SDS011;3168;51.684;6.954;2023-06-14T07:26:31;1.70;;;1.60;;
6269;SDS011;3168;51.684;6.954;2023-06-14T07:28:57;10.50;;;1.50;;
6269;SDS011;3168;51.684;6.954;2023-06-14T07:31:22;1.30;;;1.30;;
6269;SDS011;3168;51.684;6.954;2023-06-14T07:33:48;1.60;;;1.60;;
6269;SDS011;3168;51.684;6.954;2023-06-14T07:36:14;3.63;;;1.77;;
6269;SDS011;3168;51.684;6.954;2023-06-14T07:38:40;1.00;;;1.00;;
6269;SDS011;3168;51.684;6.954;2023-06-14T07:41:06;1.40;;;1.33;;
6269;SDS011;3168;51.684;6.954;2023-06-14T07:43:31;1.90;;;1.80;;
6269;SDS011;3168;51.684;6.954;2023-06-14T07:45:57;4.00;;;1.20;;
6269;SDS011;3168;51.684;6.954;2023-06-14T07:48:23;1.37;;;1.30;;
6269;SDS011;3168;51.684;6.954;2023-06-14T07:50:49;1.70;;;1.70;;
6269;SDS011;3168;51.684;6.954;2023-06-14T07:53:15;1.50;;;1.50;;
6269;SDS011;3168;51.684;6.954;2023-06-14T07:55:41;1.53;;;1.53;;
6269;SDS011;3168;51.684;6.954;2023-06-14T07:58:07;1.63;;;1.53;;
6269;SDS011;3168;51.684;6.954;2023-06-14T08:00:33;3.33;;;1.63;;
6269;SDS011;3168;51.684;6.954;2023-06-14T08:02:59;1.97;;;1.87;;
6269;SDS011;3168;51.684;6.954;2023-06-14T08:05:25;2.03;;;1.93;;
6269;SDS011;3168;51.684;6.954;2023-06-14T08:07:50;4.00;;;2.53;;
6269;SDS011;3168;51.684;6.954;2023-06-14T08:10:16;3.07;;;2.87;;
6269;SDS011;3168;51.684;6.954;2023-06-14T08:12:42;2.30;;;2.20;;
6269;SDS011;3168;51.684;6.954;2023-06-14T08:15:08;1.60;;;1.47;;
6269;SDS011;3168;51.684;6.954;2023-06-14T08:17:34;2.30;;;1.63;;
6269;SDS011;3168;51.684;6.954;2023-06-14T08:20:00;3.37;;;1.60;;
6269;SDS011;3168;51.684;6.954;2023-06-14T08:22:26;1.30;;;1.30;;
6269;SDS011;3168;51.684;6.954;2023-06-14T08:24:52;1.47;;;1.47;;
6269;SDS011;3168;51.684;6.954;2023-06-14T08:27:17;2.03;;;1.93;;
6269;SDS011;3168;51.684;6.954;2023-06-14T08:29:43;1.43;;;1.43;;
6269;SDS011;3168;51.684;6.954;2023-06-14T08:32:09;1.33;;;1.33;;
6269;SDS011;3168;51.684;6.954;2023-06-14T08:34:36;2.20;;;2.00;;
6269;SDS011;3168;51.684;6.954;2023-06-14T08:37:02;1.60;;;1.50;;
6269;SDS011;3168;51.684;6.954;2023-06-14T08:39:28;3.53;;;1.67;;
6269;SDS011;3168;51.684;6.954;2023-06-14T08:41:54;1.10;;;1.10;;
6269;SDS011;3168;51.684;6.954;2023-06-14T08:44:20;1.53;;;1.53;;
6269;SDS011;3168;51.684;6.954;2023-06-14T08:46:47;1.00;;;1.00;;
6269;SDS011;3168;51.684;6.954;2023-06-14T08:49:12;1.73;;;1.73;;
6269;SDS011;3168;51.684;6.954;2023-06-14T08:51:37;10.43;;;2.13;;
6269;SDS011;3168;51.684;6.954;2023-06-14T08:54:03;4.47;;;2.23;;
6269;SDS011;3168;51.684;6.954;2023-06-14T08:56:29;4.17;;;1.80;;
6269;SDS011;3168;51.684;6.954;2023-06-14T08:58:56;4.27;;;1.40;;
6269;SDS011;3168;51.684;6.954;2023-06-14T09:01:21;1.50;;;1.50;;
6269;SDS011;3168;51.684;6.954;2023-06-14T09:03:47;1.50;;;1.50;;
6269;SDS011;3168;51.684;6.954;2023-06-14T09:06:12;1.50;;;1.40;;
6269;SDS011;3168;51.684;6.954;2023-06-14T09:08:42;1.60;;;1.50;;
6269;SDS011;3168;51.684;6.954;2023-06-14T09:11:07;1.20;;;1.20;;
6269;SDS011;3168;51.684;6.954;2023-06-14T09:13:33;1.40;;;1.40;;
6269;SDS011;3168;51.684;6.954;2023-06-14T09:15:59;1.23;;;1.23;;
6269;SDS011;3168;51.684;6.954;2023-06-14T09:20:59;1.07;;;0.97;;
6269;SDS011;3168;51.684;6.954;2023-06-14T09:23:24;1.97;;;0.97;;
6269;SDS011;3168;51.684;6.954;2023-06-14T09:25:50;1.20;;;1.20;;
6269;SDS011;3168;51.684;6.954;2023-06-14T09:28:16;1.10;;;1.10;;
6269;SDS011;3168;51.684;6.954;2023-06-14T09:30:42;0.90;;;0.90;;
6269;SDS011;3168;51.684;6.954;2023-06-14T09:33:08;3.13;;;1.00;;
6269;SDS011;3168;51.684;6.954;2023-06-14T09:35:34;1.20;;;1.20;;
6269;SDS011;3168;51.684;6.954;2023-06-14T09:37:59;1.27;;;1.10;;
6269;SDS011;3168;51.684;6.954;2023-06-14T09:40:25;1.00;;;1.00;;
6269;SDS011;3168;51.684;6.954;2023-06-14T09:42:51;0.90;;;0.90;;
6269;SDS011;3168;51.684;6.954;2023-06-14T09:45:17;0.90;;;0.90;;
6269;SDS011;3168;51.684;6.954;2023-06-14T09:47:46;1.30;;;1.20;;
6269;SDS011;3168;51.684;6.954;2023-06-14T09:50:11;1.90;;;1.40;;
6269;SDS011;3168;51.684;6.954;2023-06-14T09:52:37;1.23;;;1.23;;
6269;SDS011;3168;51.684;6.954;2023-06-14T09:55:03;1.10;;;1.10;;
6269;SDS011;3168;51.684;6.954;2023-06-14T09:57:29;1.10;;;1.10;;
6269;SDS011;3168;51.684;6.954;2023-06-14T09:59:56;0.83;;;0.83;;
6269;SDS011;3168;51.684;6.954;2023-06-14T10:02:26;0.80;;;0.80;;
6269;SDS011;3168;51.684;6.954;2023-06-14T10:04:56;0.93;;;0.93;;
6269;SDS011;3168;51.684;6.954;2023-06-14T10:07:22;1.03;;;1.00;;
6269;SDS011;3168;51.684;6.954;2023-06-14T10:09:48;1.10;;;1.10;;
6269;SDS011;3168;51.684;6.954;2023-06-14T10:12:14;3.27;;;1.10;;
6269;SDS011;3168;51.684;6.954;2023-06-14T10:14:39;1.17;;;1.17;;
6269;SDS011;3168;51.684;6.954;2023-06-14T10:17:07;0.80;;;0.80;;
6269;SDS011;3168;51.684;6.954;2023-06-14T10:19:37;1.23;;;0.90;;
6269;SDS011;3168;51.684;6.954;2023-06-14T10:22:06;7.03;;;1.10;;
6269;SDS011;3168;51.684;6.954;2023-06-14T10:24:42;1.10;;;1.10;;
6269;SDS011;3168;51.684;6.954;2023-06-14T10:27:07;2.00;;;0.97;;
6269;SDS011;3168;51.684;6.954;2023-06-14T10:32:15;1.10;;;0.97;;
6269;SDS011;3168;51.684;6.954;2023-06-14T10:34:41;3.47;;;1.10;;
6269;SDS011;3168;51.684;6.954;2023-06-14T10:37:08;0.83;;;0.83;;
6269;SDS011;3168;51.684;6.954;2023-06-14T10:39:37;0.90;;;0.90;;
6269;SDS011;3168;51.684;6.954;2023-06-14T10:41:58;0.80;;;0.80;;
6269;SDS011;3168;51.684;6.954;2023-06-14T10:44:56;2.23;;;1.17;;
6269;SDS011;3168;51.684;6.954;2023-06-14T10:47:13;1.10;;;1.10;;
6269;SDS011;3168;51.684;6.954;2023-06-14T10:49:53;1.10;;;1.10;;
6269;SDS011;3168;51.684;6.954;2023-06-14T10:52:22;0.80;;;0.80;;
6269;SDS011;3168;51.684;6.954;2023-06-14T10:57:21;1.30;;;1.10;;
6269;SDS011;3168;51.684;6.954;2023-06-14T10:59:47;1.10;;;1.00;;
6269;SDS011;3168;51.684;6.954;2023-06-14T11:02:51;1.00;;;1.00;;
6269;SDS011;3168;51.684;6.954;2023-06-14T11:05:04;0.80;;;0.80;;
6269;SDS011;3168;51.684;6.954;2023-06-14T11:10:54;0.90;;;0.90;;
6269;SDS011;3168;51.684;6.954;2023-06-14T11:13:02;2.30;;;1.00;;
6269;SDS011;3168;51.684;6.954;2023-06-14T11:15:30;1.10;;;1.10;;
6269;SDS011;3168;51.684;6.954;2023-06-14T11:17:55;2.47;;;1.10;;
6269;SDS011;3168;51.684;6.954;2023-06-14T11:20:24;2.60;;;1.40;;
6269;SDS011;3168;51.684;6.954;2023-06-14T11:22:47;1.20;;;1.10;;
6269;SDS011;3168;51.684;6.954;2023-06-14T11:25:13;1.43;;;1.33;;
6269;SDS011;3168;51.684;6.954;2023-06-14T11:27:38;1.00;;;1.00;;
6269;SDS011;3168;51.684;6.954;2023-06-14T11:30:06;1.47;;;1.10;;
6269;SDS011;3168;51.684;6.954;2023-06-14T11:32:32;0.80;;;0.80;;
6269;SDS011;3168;51.684;6.954;2023-06-14T11:34:57;0.90;;;0.90;;
6269;SDS011;3168;51.684;6.954;2023-06-14T11:37:23;1.97;;;1.53;;
6269;SDS011;3168;51.684;6.954;2023-06-14T11:39:49;1.17;;;1.17;;
6269;SDS011;3168;51.684;6.954;2023-06-14T11:42:15;1.20;;;1.20;;
6269;SDS011;3168;51.684;6.954;2023-06-14T11:44:41;1.37;;;1.23;;
6269;SDS011;3168;51.684;6.954;2023-06-14T11:49:47;1.20;;;1.10;;
6269;SDS011;3168;51.684;6.954;2023-06-14T11:52:13;1.00;;;1.00;;
6269;SDS011;3168;51.684;6.954;2023-06-14T11:54:38;1.47;;;1.17;;
6269;SDS011;3168;51.684;6.954;2023-06-14T11:57:04;1.60;;;1.50;;
6269;SDS011;3168;51.684;6.954;2023-06-14T11:59:30;1.30;;;1.20;;
6269;SDS011;3168;51.684;6.954;2023-06-14T12:01:56;4.50;;;1.13;;
6269;SDS011;3168;51.684;6.954;2023-06-14T12:04:24;1.17;;;1.17;;
6269;SDS011;3168;51.684;6.954;2023-06-14T12:06:51;1.00;;;1.00;;
6269;SDS011;3168;51.684;6.954;2023-06-14T12:09:16;2.23;;;1.23;;
6269;SDS011;3168;51.684;6.954;2023-06-14T12:11:43;0.90;;;0.90;;
6269;SDS011;3168;51.684;6.954;2023-06-14T12:14:09;1.43;;;1.43;;
6269;SDS011;3168;51.684;6.954;2023-06-14T12:16:36;2.80;;;1.57;;
6269;SDS011;3168;51.684;6.954;2023-06-14T12:19:08;1.40;;;1.40;;
6269;SDS011;3168;51.684;6.954;2023-06-14T12:21:33;1.20;;;1.20;;
6269;SDS011;3168;51.684;6.954;2023-06-14T12:23:59;1.47;;;1.37;;
6269;SDS011;3168;51.684;6.954;2023-06-14T12:26:24;10.30;;;1.43;;
6269;SDS011;3168;51.684;6.954;2023-06-14T12:28:51;2.00;;;1.30;;
6269;SDS011;3168;51.684;6.954;2023-06-14T12:31:16;1.03;;;1.03;;
6269;SDS011;3168;51.684;6.954;2023-06-14T12:33:42;2.80;;;1.20;;
6269;SDS011;3168;51.684;6.954;2023-06-14T12:36:08;2.60;;;1.60;;
6269;SDS011;3168;51.684;6.954;2023-06-14T12:38:34;1.07;;;1.07;;
6269;SDS011;3168;51.684;6.954;2023-06-14T12:40:59;1.07;;;1.07;;
6269;SDS011;3168;51.684;6.954;2023-06-14T12:43:25;1.10;;;1.10;;
6269;SDS011;3168;51.684;6.954;2023-06-14T12:45:51;1.10;;;1.10;;
6269;SDS011;3168;51.684;6.954;2023-06-14T12:48:17;1.20;;;1.20;;
6269;SDS011;3168;51.684;6.954;2023-06-14T12:50:43;1.43;;;1.43;;
6269;SDS011;3168;51.684;6.954;2023-06-14T12:53:08;6.10;;;5.60;;
6269;SDS011;3168;51.684;6.954;2023-06-14T12:55:34;1.97;;;1.97;;
6269;SDS011;3168;51.684;6.954;2023-06-14T12:58:00;1.70;;;1.70;;
6269;SDS011;3168;51.684;6.954;2023-06-14T13:00:26;1.20;;;1.20;;
6269;SDS011;3168;51.684;6.954;2023-06-14T13:02:52;1.67;;;1.67;;
6269;SDS011;3168;51.684;6.954;2023-06-14T13:05:18;1.70;;;1.70;;
6269;SDS011;3168;51.684;6.954;2023-06-14T13:07:43;1.80;;;1.50;;
6269;SDS011;3168;51.684;6.954;2023-06-14T13:10:09;1.10;;;1.10;;
6269;SDS011;3168;51.684;6.954;2023-06-14T13:12:35;6.33;;;1.27;;
6269;SDS011;3168;51.684;6.954;2023-06-14T13:15:02;14.03;;;2.30;;
6269;SDS011;3168;51.684;6.954;2023-06-14T13:17:28;1.20;;;1.20;;
6269;SDS011;3168;51.684;6.954;2023-06-14T13:19:53;4.30;;;1.30;;
6269;SDS011;3168;51.684;6.954;2023-06-14T13:22:19;1.90;;;1.80;;
6269;SDS011;3168;51.684;6.954;2023-06-14T13:24:45;1.30;;;1.30;;
6269;SDS011;3168;51.684;6.954;2023-06-14T13:27:11;1.40;;;1.40;;
6269;SDS011;3168;51.684;6.954;2023-06-14T13:29:37;1.87;;;1.80;;
6269;SDS011;3168;51.684;6.954;2023-06-14T13:32:03;1.40;;;1.40;;
6269;SDS011;3168;51.684;6.954;2023-06-14T13:34:29;1.20;;;1.20;;
6269;SDS011;3168;51.684;6.954;2023-06-14T13:36:55;1.90;;;1.80;;
6269;SDS011;3168;51.684;6.954;2023-06-14T13:39:21;1.60;;;1.60;;
6269;SDS011;3168;51.684;6.954;2023-06-14T13:41:46;1.33;;;1.33;;
6269;SDS011;3168;51.684;6.954;2023-06-14T13:44:12;1.13;;;1.13;;
6269;SDS011;3168;51.684;6.954;2023-06-14T13:46:39;1.13;;;1.13;;
6269;SDS011;3168;51.684;6.954;2023-06-14T13:49:05;1.00;;;1.00;;
6269;SDS011;3168;51.684;6.954;2023-06-14T13:51:30;3.57;;;2.70;;
6269;SDS011;3168;51.684;6.954;2023-06-14T13:53:56;1.53;;;1.43;;
6269;SDS011;3168;51.684;6.954;2023-06-14T13:56:22;2.00;;;1.90;;
6269;SDS011;3168;51.684;6.954;2023-06-14T13:58:48;1.47;;;1.47;;
6269;SDS011;3168;51.684;6.954;2023-06-14T14:01:14;1.30;;;1.30;;
6269;SDS011;3168;51.684;6.954;2023-06-14T14:03:39;1.47;;;1.47;;
6269;SDS011;3168;51.684;6.954;2023-06-14T14:06:05;1.30;;;1.30;;
6269;SDS011;3168;51.684;6.954;2023-06-14T14:08:31;1.10;;;1.10;;
6269;SDS011;3168;51.684;6.954;2023-06-14T14:10:57;2.50;;;1.60;;
6269;SDS011;3168;51.684;6.954;2023-06-14T14:13:23;1.77;;;1.77;;
6269;SDS011;3168;51.684;6.954;2023-06-14T14:15:48;1.37;;;1.37;;
6269;SDS011;3168;51.684;6.954;2023-06-14T14:18:14;10.00;;;1.60;;
6269;SDS011;3168;51.684;6.954;2023-06-14T14:20:40;15.17;;;2.03;;
6269;SDS011;3168;51.684;6.954;2023-06-14T14:23:06;1.37;;;1.37;;
6269;SDS011;3168;51.684;6.954;2023-06-14T14:25:32;4.10;;;1.60;;
6269;SDS011;3168;51.684;6.954;2023-06-14T14:27:57;1.83;;;1.73;;
6269;SDS011;3168;51.684;6.954;2023-06-14T14:30:23;3.33;;;1.60;;
6269;SDS011;3168;51.684;6.954;2023-06-14T14:32:49;2.40;;;1.60;;
6269;SDS011;3168;51.684;6.954;2023-06-14T14:35:15;1.10;;;1.10;;
6269;SDS011;3168;51.684;6.954;2023-06-14T14:37:41;1.70;;;1.50;;
6269;SDS011;3168;51.684;6.954;2023-06-14T14:40:07;1.30;;;1.30;;
6269;SDS011;3168;51.684;6.954;2023-06-14T14:42:33;1.47;;;1.47;;
6269;SDS011;3168;51.684;6.954;2023-06-14T14:44:59;1.63;;;1.57;;
6269;SDS011;3168;51.684;6.954;2023-06-14T14:47:25;2.00;;;1.80;;
6269;SDS011;3168;51.684;6.954;2023-06-14T14:49:51;1.80;;;1.80;;
6269;SDS011;3168;51.684;6.954;2023-06-14T14:52:17;1.57;;;1.47;;
6269;SDS011;3168;51.684;6.954;2023-06-14T14:54:42;1.00;;;1.00;;
6269;SDS011;3168;51.684;6.954;2023-06-14T14:57:08;1.47;;;1.33;;
6269;SDS011;3168;51.684;6.954;2023-06-14T14:59:34;2.07;;;1.87;;
6269;SDS011;3168;51.684;6.954;2023-06-14T15:02:00;1.20;;;1.10;;
6269;SDS011;3168;51.684;6.954;2023-06-14T15:04:26;1.40;;;1.40;;
6269;SDS011;3168;51.684;6.954;2023-06-14T15:06:51;1.80;;;1.70;;
6269;SDS011;3168;51.684;6.954;2023-06-14T15:09:17;1.40;;;1.40;;
6269;SDS011;3168;51.684;6.954;2023-06-14T15:11:43;1.30;;;1.30;;
6269;SDS011;3168;51.684;6.954;2023-06-14T15:14:09;1.40;;;1.40;;
6269;SDS011;3168;51.684;6.954;2023-06-14T15:16:35;1.53;;;1.53;;
6269;SDS011;3168;51.684;6.954;2023-06-14T15:19:02;1.87;;;1.77;;
6269;SDS011;3168;51.684;6.954;2023-06-14T15:21:28;1.20;;;1.10;;